Time;durP1;ratioP1;P1;durP2;ratioP2;P2;SDS_P1;SDS_P2;PMS_P1;PMS_P2;Temp;Humidity;BMP_temperature;BMP_pressure;BME280_temperature;BME280_humidity;BME280_pressure;Samples;Min_cycle;Max_cycle;Signal;HPM_P1;HPM_P2
2023/01/03 00:00:41;;;;;;;6.00;4.35;;;;;;;-140.72;100.00;53275.66;5127295;27;20370;-70
2023/01/03 00:03:06;;;;;;;6.40;4.60;;;;;;;-140.72;100.00;53287.84;5130309;27;20106;-71
2023/01/03 00:05:35;;;;;;;11.80;4.18;;;;;;;-140.72;100.00;53273.63;5127582;27;20481;-74
2023/01/03 00:08:01;;;;;;;9.63;4.43;;;;;;;-140.72;100.00;53243.19;5127015;27;20022;-74
2023/01/03 00:10:28;;;;;;;8.38;4.07;;;;;;;-140.72;100.00;53312.19;5129279;27;20023;-71
2023/01/03 00:12:56;;;;;;;6.10;4.22;;;;;;;-140.72;100.00;53312.19;5123944;27;20050;-71
2023/01/03 00:15:22;;;;;;;7.82;5.32;;;;;;;-140.72;100.00;53293.91;5129031;27;20114;-72
2023/01/03 00:17:47;;;;;;;5.57;3.72;;;;;;;-140.72;100.00;53320.31;5129862;27;20110;-73
2023/01/03 00:20:12;;;;;;;5.70;3.90;;;;;;;-140.72;100.00;53279.72;5130167;27;20451;-71
2023/01/03 00:22:38;;;;;;;4.78;3.95;;;;;;;-140.72;100.00;53293.91;5126122;27;20340;-71
2023/01/03 00:25:03;;;;;;;9.43;4.00;;;;;;;-140.72;100.00;53275.66;5130099;27;20019;-71
2023/01/03 00:27:29;;;;;;;5.88;3.63;;;;;;;-140.72;100.00;53283.78;5128744;27;20023;-74
2023/01/03 00:29:54;;;;;;;5.90;3.70;;;;;;;-140.72;100.00;53275.66;5128634;27;20042;-72
2023/01/03 00:32:20;;;;;;;3.90;2.92;;;;;;;-140.72;100.00;53312.19;5127470;27;20107;-72
2023/01/03 00:34:45;;;;;;;6.60;3.53;;;;;;;-140.72;100.00;53239.13;5130286;27;20408;-71
2023/01/03 00:37:12;;;;;;;6.15;4.35;;;;;;;-140.72;100.00;53295.94;5127462;27;20443;-73
2023/01/03 00:39:38;;;;;;;6.43;3.75;;;;;;;-140.72;100.00;53295.94;5126920;27;20023;-72
2023/01/03 00:42:05;;;;;;;7.30;3.97;;;;;;;-140.72;100.00;53247.25;5121187;28;20478;-71
2023/01/03 00:44:33;;;;;;;5.78;3.75;;;;;;;-140.72;100.00;53289.88;5129706;28;20050;-72
2023/01/03 00:46:59;;;;;;;4.75;2.90;;;;;;;-140.72;100.00;53287.84;5128617;28;20038;-72
2023/01/03 00:49:25;;;;;;;6.25;3.33;;;;;;;-140.72;100.00;53316.25;5128755;28;20031;-71
2023/01/03 00:51:52;;;;;;;4.80;3.22;;;;;;;-140.72;100.00;53283.78;5128866;28;20027;-73
2023/01/03 00:54:19;;;;;;;5.82;3.92;;;;;;;-140.72;100.00;53255.34;5128621;28;20043;-71
2023/01/03 00:56:46;;;;;;;6.25;3.92;;;;;;;-140.72;100.00;53340.59;5124777;28;20039;-71
2023/01/03 00:59:17;;;;;;;5.07;3.75;;;;;;;-140.72;100.00;53283.78;5124876;28;20094;-72
2023/01/03 01:01:45;;;;;;;6.35;4.47;;;;;;;-140.72;100.00;53279.72;5127594;28;20019;-72
2023/01/03 01:04:26;;;;;;;6.03;4.03;;;;;;;-140.72;100.00;53285.81;5129743;28;20011;-71
2023/01/03 01:06:57;;;;;;;6.93;3.65;;;;;;;-140.72;100.00;53312.19;5126845;28;20039;-71
2023/01/03 01:09:26;;;;;;;3.85;2.85;;;;;;;-140.72;100.00;53279.72;5127013;28;20118;-72
2023/01/03 01:11:53;;;;;;;6.93;3.97;;;;;;;-140.72;100.00;53316.25;5124958;28;20035;-70
2023/01/03 01:14:20;;;;;;;5.50;3.63;;;;;;;-140.72;100.00;53265.50;5128702;27;20031;-74
2023/01/03 01:16:55;;;;;;;4.82;3.33;;;;;;;-140.72;100.00;53302.03;5127121;27;20019;-71
2023/01/03 01:19:23;;;;;;;8.50;3.80;;;;;;;-140.72;100.00;53283.78;5133334;27;20465;-71
2023/01/03 01:21:49;;;;;;;6.90;4.97;;;;;;;-140.72;100.00;53251.31;5133330;27;20019;-71
2023/01/03 01:24:15;;;;;;;8.50;4.60;;;;;;;-140.72;100.00;53297.97;5130998;27;20346;-71
2023/01/03 01:26:40;;;;;;;5.72;4.10;;;;;;;-140.72;100.00;53300.00;5133156;27;20022;-70
2023/01/03 01:29:06;;;;;;;8.10;4.85;;;;;;;-140.72;100.00;53332.47;5131256;27;20030;-71
2023/01/03 01:31:32;;;;;;;7.82;5.20;;;;;;;-140.72;100.00;53275.66;5127205;27;20039;-72
2023/01/03 01:33:57;;;;;;;7.82;5.35;;;;;;;-140.72;100.00;53289.88;5130993;27;20020;-72
2023/01/03 01:36:26;;;;;;;8.10;5.40;;;;;;;-140.72;100.00;53263.47;5133693;27;20112;-73
2023/01/03 01:39:04;;;;;;;10.25;5.38;;;;;;;-140.72;100.00;53283.78;5130169;27;20023;-71
2023/01/03 01:44:39;;;;;;;6.82;4.65;;;;;;;-140.72;100.00;53277.69;5129445;27;20056;-71
2023/01/03 01:47:13;;;;;;;17.25;7.20;;;;;;;-140.72;100.00;53245.22;5112511;27;20161;-71
2023/01/03 01:49:39;;;;;;;15.63;7.88;;;;;;;-140.72;100.00;53312.19;5130990;27;20096;-70
2023/01/03 01:52:06;;;;;;;9.80;5.93;;;;;;;-140.72;100.00;53338.56;5131893;27;20034;-71
2023/01/03 01:54:32;;;;;;;11.10;8.52;;;;;;;-140.72;100.00;53354.81;5131860;27;20023;-71
2023/01/03 01:56:58;;;;;;;13.52;6.70;;;;;;;-140.72;100.00;53287.84;5128636;27;20459;-71
2023/01/03 01:59:23;;;;;;;9.65;5.65;;;;;;;-140.72;100.00;53306.09;5130974;27;20102;-74
2023/01/03 02:01:51;;;;;;;5.82;4.63;;;;;;;-140.72;100.00;53310.16;5132903;27;20362;-71
2023/01/03 02:04:24;;;;;;;12.68;5.15;;;;;;;-140.72;100.00;53265.50;5131434;27;20015;-74
2023/01/03 02:06:51;;;;;;;8.45;5.50;;;;;;;-140.72;100.00;53302.03;5129454;27;20043;-71
2023/01/03 02:09:16;;;;;;;7.60;5.28;;;;;;;-140.72;100.00;53297.97;5133237;27;20016;-71
2023/01/03 02:13:04;;;;;;;12.20;6.90;;;;;;;-140.72;100.00;53300.00;5129042;27;20015;-70
2023/01/03 02:14:57;;;;;;;12.32;5.82;;;;;;;-140.72;100.00;53287.84;5129173;27;20148;-72
2023/01/03 02:17:37;;;;;;;9.90;6.50;;;;;;;-140.72;100.00;53314.22;5131710;27;20019;-71
2023/01/03 02:20:19;;;;;;;7.47;5.40;;;;;;;-140.72;100.00;53304.06;5131284;27;20021;-74
2023/01/03 02:23:06;;;;;;;13.23;7.13;;;;;;;-140.72;100.00;53312.19;5132216;27;20055;-71
2023/01/03 02:25:43;;;;;;;6.88;4.38;;;;;;;-140.72;100.00;53316.25;5128469;27;20417;-72
2023/01/03 02:28:46;;;;;;;8.40;5.40;;;;;;;-140.72;100.00;53291.88;5130276;27;20019;-71
2023/01/03 02:31:25;;;;;;;6.95;4.97;;;;;;;-140.72;100.00;53293.91;5126332;27;20031;-72
2023/01/03 02:33:56;;;;;;;13.82;7.40;;;;;;;-140.72;100.00;53308.13;5129366;27;20058;-71
2023/01/03 02:37:01;;;;;;;10.45;7.45;;;;;;;-140.72;100.00;53322.34;5131170;27;20019;-72
2023/01/03 02:40:06;;;;;;;11.77;6.25;;;;;;;-140.72;100.00;53320.31;5123087;27;20019;-72
2023/01/03 02:42:57;;;;;;;15.27;9.00;;;;;;;-140.72;100.00;53304.06;5124006;27;20062;-73
2023/01/03 02:45:53;;;;;;;17.58;9.10;;;;;;;-140.72;100.00;53283.78;5130371;27;20028;-71
2023/01/03 02:48:41;;;;;;;13.05;8.50;;;;;;;-140.72;100.00;53320.31;5131093;27;20027;-71
2023/01/03 02:51:20;;;;;;;19.98;10.55;;;;;;;-140.72;100.00;53287.84;5129787;27;20027;-71
2023/01/03 02:53:48;;;;;;;19.65;11.23;;;;;;;-140.72;100.00;53302.03;5129413;27;20049;-72
2023/01/03 02:56:20;;;;;;;20.55;10.43;;;;;;;-140.72;100.00;53308.13;5124864;27;20098;-71
2023/01/03 02:58:48;;;;;;;28.35;10.98;;;;;;;-140.72;100.00;53283.78;5132129;27;20440;-73
2023/01/03 03:01:17;;;;;;;15.05;8.90;;;;;;;-140.72;100.00;53293.91;5130763;27;20019;-71
2023/01/03 03:03:44;;;;;;;18.48;9.55;;;;;;;-140.72;100.00;53336.53;5131052;27;20022;-72
2023/01/03 03:06:21;;;;;;;24.17;11.05;;;;;;;-140.72;100.00;53283.78;5118068;27;20102;-73
2023/01/03 03:08:47;;;;;;;18.60;9.40;;;;;;;-140.72;100.00;53308.13;5129066;27;20023;-71
2023/01/03 03:14:16;;;;;;;19.40;10.73;;;;;;;-140.72;100.00;53324.38;5111429;27;20042;-72
2023/01/03 03:16:47;;;;;;;19.20;10.65;;;;;;;-140.72;100.00;53275.66;5112514;28;20138;-72
2023/01/03 03:24:58;;;;;;;20.25;11.27;;;;;;;-140.72;100.00;53314.22;5131382;27;20030;-72
2023/01/03 03:30:16;;;;;;;21.23;10.10;;;;;;;-140.72;100.00;53320.31;5131559;27;20217;-72
2023/01/03 03:32:45;;;;;;;17.95;10.13;;;;;;;-140.72;100.00;53352.78;5130814;27;20023;-73
2023/01/03 03:35:14;;;;;;;14.00;9.35;;;;;;;-140.72;100.00;53308.13;5128998;27;20027;-70
2023/01/03 03:37:45;;;;;;;21.33;10.65;;;;;;;-140.72;100.00;53328.41;5122114;27;20016;-71
2023/01/03 03:46:20;;;;;;;18.25;10.50;;;;;;;-140.72;100.00;53322.34;5123920;27;20411;-73
2023/01/03 03:51:47;;;;;;;24.75;12.57;;;;;;;-140.72;100.00;53295.94;5124499;27;20428;-70
2023/01/03 03:54:19;;;;;;;18.88;12.35;;;;;;;-140.72;100.00;53334.50;5129443;27;20034;-71
2023/01/03 03:56:51;;;;;;;25.13;13.25;;;;;;;-140.72;100.00;53324.38;5123980;27;20026;-72
2023/01/03 03:59:20;;;;;;;19.77;12.35;;;;;;;-140.72;100.00;53300.00;5127677;27;20375;-72
2023/01/03 04:01:47;;;;;;;19.27;11.45;;;;;;;-140.72;100.00;53318.28;5130425;27;20015;-71
2023/01/03 04:04:23;;;;;;;19.10;13.13;;;;;;;-140.72;100.00;53287.84;5126400;27;20023;-73
2023/01/03 04:06:50;;;;;;;18.55;10.15;;;;;;;-140.72;100.00;53283.78;5127379;27;20398;-71
2023/01/03 04:09:17;;;;;;;21.65;12.30;;;;;;;-140.72;100.00;53306.09;5130759;27;20080;-70
2023/01/03 04:11:43;;;;;;;18.15;12.85;;;;;;;-140.72;100.00;53312.19;5127389;27;20038;-71
2023/01/03 04:14:08;;;;;;;21.60;11.60;;;;;;;-140.72;100.00;53300.00;5124887;27;20060;-71
2023/01/03 04:16:33;;;;;;;21.50;12.27;;;;;;;-140.72;100.00;53273.63;5118224;27;20063;-72
2023/01/03 04:18:59;;;;;;;16.52;11.93;;;;;;;-140.72;100.00;53308.13;5128892;27;20037;-71
2023/01/03 04:21:24;;;;;;;17.88;13.13;;;;;;;-140.72;100.00;53279.72;5120203;27;20314;-73
2023/01/03 04:23:50;;;;;;;17.20;12.25;;;;;;;-140.72;100.00;53300.00;5129581;27;20023;-70
2023/01/03 04:26:16;;;;;;;20.38;13.60;;;;;;;-140.72;100.00;53267.53;5127970;27;20026;-71
2023/01/03 04:28:41;;;;;;;18.75;12.85;;;;;;;-140.72;100.00;53304.06;5117147;27;20340;-70
2023/01/03 04:31:06;;;;;;;21.05;14.90;;;;;;;-140.72;100.00;53287.84;5126199;27;20038;-72
2023/01/03 04:33:32;;;;;;;18.80;13.02;;;;;;;-140.72;100.00;53281.75;5112869;27;20051;-71
2023/01/03 04:35:57;;;;;;;19.63;12.43;;;;;;;-140.72;100.00;53320.31;5116349;27;20027;-69
2023/01/03 04:38:22;;;;;;;21.27;15.57;;;;;;;-140.72;100.00;53324.38;5116979;27;20019;-71
2023/01/03 04:40:48;;;;;;;22.85;14.98;;;;;;;-140.72;100.00;53312.19;5120548;27;20401;-74
2023/01/03 04:45:57;;;;;;;24.77;15.20;;;;;;;-140.72;100.00;53261.44;5124321;28;20131;-71
2023/01/03 04:48:23;;;;;;;20.08;15.13;;;;;;;-140.72;100.00;53265.50;5124988;28;20110;-70
2023/01/03 04:50:58;;;;;;;23.30;14.45;;;;;;;-140.72;100.00;53281.75;5113718;27;20044;-71
2023/01/03 04:53:25;;;;;;;21.85;14.95;;;;;;;-140.72;100.00;53300.00;5123557;27;20050;-71
2023/01/03 04:55:52;;;;;;;19.80;14.63;;;;;;;-140.72;100.00;53318.28;5120364;27;20020;-71
2023/01/03 04:58:19;;;;;;;19.25;12.52;;;;;;;-140.72;100.00;53318.28;5124110;27;20086;-71
2023/01/03 05:00:45;;;;;;;25.23;16.00;;;;;;;-140.72;100.00;53291.88;5134308;27;20050;-71
2023/01/03 05:03:10;;;;;;;20.65;13.32;;;;;;;-140.72;100.00;53306.09;5127220;27;20443;-72
2023/01/03 05:05:36;;;;;;;22.80;13.77;;;;;;;-140.72;100.00;53304.06;5121173;27;20048;-75
2023/01/03 05:08:07;;;;;;;22.17;15.40;;;;;;;-140.72;100.00;53344.66;5134733;27;20035;-70
2023/01/03 05:10:34;;;;;;;26.52;14.93;;;;;;;-140.72;100.00;53320.31;5131218;27;20424;-70
2023/01/03 05:12:59;;;;;;;24.15;14.55;;;;;;;-140.72;100.00;53277.69;5120858;27;20020;-73
2023/01/03 05:15:30;;;;;;;33.42;14.45;;;;;;;-140.72;100.00;53322.34;5119697;27;20023;-69
2023/01/03 05:17:56;;;;;;;25.10;13.85;;;;;;;-140.72;100.00;53324.38;5127366;27;20926;-70
2023/01/03 05:26:05;;;;;;;20.65;14.05;;;;;;;-140.72;100.00;53302.03;5131030;27;20539;-73
2023/01/03 05:28:31;;;;;;;22.95;14.07;;;;;;;-140.72;100.00;53310.16;5128973;27;20023;-72
2023/01/03 05:30:57;;;;;;;30.42;12.70;;;;;;;-140.72;100.00;53291.88;5130911;27;20048;-73
2023/01/03 05:33:23;;;;;;;21.48;13.50;;;;;;;-140.72;100.00;53304.06;5127228;27;20023;-71
2023/01/03 05:35:48;;;;;;;22.60;13.00;;;;;;;-140.72;100.00;53291.88;5132153;27;20255;-71
2023/01/03 05:38:14;;;;;;;28.73;14.70;;;;;;;-140.72;100.00;53283.78;5129177;27;20439;-71
2023/01/03 05:40:40;;;;;;;24.60;14.43;;;;;;;-140.72;100.00;53289.88;5130301;27;20141;-72
2023/01/03 05:43:06;;;;;;;23.30;13.27;;;;;;;-140.72;100.00;53295.94;5122140;27;20374;-72
2023/01/03 05:45:34;;;;;;;18.08;12.57;;;;;;;-140.72;100.00;53312.19;5131813;27;20041;-72
2023/01/03 05:48:00;;;;;;;22.48;14.15;;;;;;;-140.72;100.00;53320.31;5120735;27;20024;-72
2023/01/03 05:50:25;;;;;;;23.67;13.50;;;;;;;-140.72;100.00;53328.41;5127400;27;20019;-72
2023/01/03 05:52:51;;;;;;;29.85;16.05;;;;;;;-140.72;100.00;53342.63;5130668;27;20135;-74
2023/01/03 05:55:16;;;;;;;19.08;14.90;;;;;;;-140.72;100.00;53275.66;5119314;27;20027;-71
2023/01/03 05:57:42;;;;;;;21.05;14.73;;;;;;;-140.72;100.00;53310.16;5130831;27;20036;-72
2023/01/03 06:00:08;;;;;;;24.00;14.70;;;;;;;-140.72;100.00;53287.84;5133640;27;20020;-71
2023/01/03 06:02:34;;;;;;;31.60;15.02;;;;;;;-140.72;100.00;53293.91;5127366;27;20019;-71
2023/01/03 06:04:59;;;;;;;23.00;13.48;;;;;;;-140.72;100.00;53316.25;5118235;27;20413;-72
2023/01/03 06:07:25;;;;;;;17.10;13.27;;;;;;;-140.72;100.00;53277.69;5125515;27;20039;-71
2023/01/03 06:09:50;;;;;;;26.23;14.98;;;;;;;-140.72;100.00;53304.06;5132595;27;20052;-71
2023/01/03 06:12:15;;;;;;;19.35;14.23;;;;;;;-140.72;100.00;53308.13;5124547;27;20019;-73
2023/01/03 06:14:41;;;;;;;22.58;13.07;;;;;;;-140.72;100.00;53283.78;5125036;27;20373;-73
2023/01/03 06:19:50;;;;;;;28.95;16.17;;;;;;;-140.72;100.00;53304.06;5122042;27;20026;-72
2023/01/03 06:22:15;;;;;;;24.15;14.43;;;;;;;-140.72;100.00;53308.13;5122109;27;20027;-71
2023/01/03 06:24:41;;;;;;;25.10;14.70;;;;;;;-140.72;100.00;53324.38;5128375;27;20034;-71
2023/01/03 06:27:06;;;;;;;20.52;15.13;;;;;;;-140.72;100.00;53263.47;5119469;27;20030;-74
2023/01/03 06:29:31;;;;;;;26.52;14.40;;;;;;;-140.72;100.00;53295.94;5125905;27;20442;-71
2023/01/03 06:31:57;;;;;;;21.40;13.45;;;;;;;-140.72;100.00;53261.44;5125369;27;20063;-71
2023/01/03 06:34:22;;;;;;;19.75;12.70;;;;;;;-140.72;100.00;53243.19;5123197;27;20027;-71
2023/01/03 06:36:47;;;;;;;19.85;12.73;;;;;;;-140.72;100.00;53263.47;5125916;27;20110;-71
2023/01/03 06:39:13;;;;;;;19.58;13.63;;;;;;;-140.72;100.00;53251.31;5121407;27;20082;-71
2023/01/03 06:41:38;;;;;;;19.42;12.23;;;;;;;-140.72;100.00;53332.47;5123780;27;20466;-73
2023/01/03 06:44:04;;;;;;;22.60;11.60;;;;;;;-140.72;100.00;53283.78;5122478;27;20489;-70
2023/01/03 06:55:00;;;;;;;16.00;12.27;;;;;;;-140.72;100.00;53320.31;5085865;27;20080;-73
2023/01/03 06:57:26;;;;;;;17.75;12.32;;;;;;;-140.72;100.00;53304.06;5131622;27;20556;-74
2023/01/03 06:59:51;;;;;;;14.55;11.10;;;;;;;-140.72;100.00;53306.09;5132212;27;20106;-73
2023/01/03 07:02:19;;;;;;;19.77;12.73;;;;;;;-140.72;100.00;53312.19;5118878;27;20512;-73
2023/01/03 07:04:45;;;;;;;18.17;11.40;;;;;;;-140.72;100.00;53334.50;5124934;27;20028;-73
2023/01/03 07:07:10;;;;;;;19.92;11.65;;;;;;;-140.72;100.00;53255.34;5126457;27;20394;-73
2023/01/03 07:09:35;;;;;;;12.90;9.82;;;;;;;-140.72;100.00;53267.53;5113700;27;20332;-75
2023/01/03 07:13:57;;;;;;;17.55;10.23;;;;;;;-140.72;100.00;53231.00;5117148;27;20060;-73
2023/01/03 07:14:46;;;;;;;16.05;9.77;;;;;;;-140.72;100.00;53283.78;5126527;27;20023;-76
2023/01/03 07:17:15;;;;;;;16.38;10.27;;;;;;;-140.72;100.00;53300.00;5132089;27;20386;-74
2023/01/03 07:19:40;;;;;;;12.60;9.93;;;;;;;-140.72;100.00;53285.81;5118085;27;20019;-72
2023/01/03 07:22:05;;;;;;;12.10;8.48;;;;;;;-140.72;100.00;53291.88;5114863;27;20352;-72
2023/01/03 07:24:31;;;;;;;12.38;9.00;;;;;;;-140.72;100.00;53259.41;5121938;27;20069;-72
2023/01/03 07:26:56;;;;;;;19.80;9.20;;;;;;;-140.72;100.00;53285.81;5130531;27;20496;-72
2023/01/03 07:29:22;;;;;;;16.88;10.05;;;;;;;-140.72;100.00;53257.38;5118437;27;20027;-73
2023/01/03 07:31:47;;;;;;;13.60;9.85;;;;;;;-140.72;100.00;53295.94;5124976;27;20489;-72
2023/01/03 07:34:13;;;;;;;20.05;10.10;;;;;;;-140.72;100.00;53273.63;5124334;27;20024;-72
2023/01/03 07:36:38;;;;;;;13.45;8.82;;;;;;;-140.72;100.00;53259.41;5125528;27;20106;-72
2023/01/03 07:39:04;;;;;;;14.15;10.15;;;;;;;-140.72;100.00;53271.59;5132102;27;20019;-72
2023/01/03 07:43:35;;;;;;;15.90;9.05;;;;;;;-140.72;100.00;53283.78;5125014;27;20083;-73
2023/01/03 07:44:17;;;;;;;10.35;8.38;;;;;;;-140.72;100.00;53289.88;5124049;27;20080;-72
2023/01/03 07:46:42;;;;;;;14.70;9.60;;;;;;;-140.72;100.00;53263.47;5125716;27;20020;-72
2023/01/03 07:49:08;;;;;;;13.05;9.07;;;;;;;-140.72;100.00;53289.88;5111799;28;20051;-72
2023/01/03 07:51:33;;;;;;;12.85;9.60;;;;;;;-140.72;100.00;53289.88;5125666;27;20509;-72
2023/01/03 07:53:59;;;;;;;17.17;9.68;;;;;;;-140.72;100.00;53277.69;5112094;27;20039;-72
2023/01/03 07:56:24;;;;;;;11.30;8.60;;;;;;;-140.72;100.00;53271.59;5118562;27;20019;-71
2023/01/03 07:58:50;;;;;;;12.00;9.02;;;;;;;-140.72;100.00;53275.66;5118582;27;20024;-71
2023/01/03 08:01:18;;;;;;;14.95;9.95;;;;;;;-140.72;100.00;53283.78;5125871;27;20027;-75
2023/01/03 08:03:44;;;;;;;17.58;10.50;;;;;;;-140.72;100.00;53283.78;5112137;28;20039;-73
2023/01/03 08:06:15;;;;;;;13.43;9.13;;;;;;;-140.72;100.00;53275.66;5130859;27;20027;-73
2023/01/03 08:08:41;;;;;;;14.10;9.07;;;;;;;-140.72;100.00;53265.50;5119642;27;20034;-72
2023/01/03 08:14:00;;;;;;;16.67;10.45;;;;;;;-140.72;100.00;53247.25;5125747;27;20451;-74
2023/01/03 08:16:34;;;;;;;16.60;9.68;;;;;;;-140.72;100.00;53283.78;5129943;27;20027;-73
2023/01/03 08:19:00;;;;;;;20.60;11.20;;;;;;;-140.72;100.00;53239.13;5122674;27;20032;-72
2023/01/03 08:21:30;;;;;;;15.73;9.85;;;;;;;-140.72;100.00;53271.59;5132601;27;20015;-73
2023/01/03 08:23:57;;;;;;;14.93;8.77;;;;;;;-140.72;100.00;53218.81;5129391;27;20455;-75
2023/01/03 08:26:23;;;;;;;15.63;9.18;;;;;;;-140.72;100.00;53275.66;5104938;28;20031;-74
2023/01/03 08:28:49;;;;;;;18.02;10.80;;;;;;;-140.72;100.00;53253.31;5130536;27;20026;-75
2023/01/03 08:31:18;;;;;;;15.77;9.15;;;;;;;-140.72;100.00;53243.19;5122086;27;20034;-74
2023/01/03 08:33:54;;;;;;;17.35;11.13;;;;;;;-140.72;100.00;53222.88;5117550;28;20024;-77
2023/01/03 08:36:24;;;;;;;15.23;9.27;;;;;;;-140.72;100.00;53287.84;5122563;27;20366;-75
2023/01/03 08:39:15;;;;;;;18.80;9.88;;;;;;;-140.72;100.00;53249.28;5128194;27;20035;-76
2023/01/03 08:41:47;;;;;;;18.02;11.18;;;;;;;-140.72;100.00;53245.22;5127030;27;20019;-74
2023/01/03 08:44:13;;;;;;;17.55;9.90;;;;;;;-140.72;100.00;53271.59;5127124;27;20019;-72
2023/01/03 08:46:48;;;;;;;16.77;10.13;;;;;;;-140.72;100.00;53253.31;5128649;27;20135;-74
2023/01/03 08:49:14;;;;;;;18.13;11.25;;;;;;;-140.72;100.00;53235.06;5128205;28;20363;-73
2023/01/03 08:51:43;;;;;;;18.08;10.18;;;;;;;-140.72;100.00;53253.31;5128054;28;20011;-76
2023/01/03 08:54:10;;;;;;;;;;;;;;;-140.72;100.00;53267.53;5129425;28;20092;-73
2023/01/03 08:56:35;;;;;;;20.95;11.95;;;;;;;-140.72;100.00;53267.53;5129692;28;19963;-74
2023/01/03 08:59:01;;;;;;;22.63;10.43;;;;;;;-140.72;100.00;53251.31;5129082;28;20058;-74
2023/01/03 09:01:26;;;;;;;17.58;9.18;;;;;;;-140.72;100.00;53257.38;5130346;28;20473;-73
2023/01/03 09:03:52;;;;;;;19.17;11.02;;;;;;;-140.72;100.00;53222.88;5125756;28;20023;-73
2023/01/03 09:06:21;;;;;;;19.70;11.07;;;;;;;-140.72;100.00;53267.53;5127462;28;20114;-73
2023/01/03 09:08:46;;;;;;;14.93;10.32;;;;;;;-140.72;100.00;53235.06;5128402;28;20067;-75
2023/01/03 09:11:15;;;;;;;19.42;11.80;;;;;;;-140.72;100.00;53228.97;5128981;28;20392;-73
2023/01/03 09:13:40;;;;;;;22.73;12.40;;;;;;;-140.72;100.00;53283.78;5120143;28;20019;-74
2023/01/03 09:16:11;;;;;;;22.10;13.75;;;;;;;-140.72;100.00;53245.22;5122516;28;20024;-73
2023/01/03 09:18:40;;;;;;;20.10;12.77;;;;;;;-140.72;100.00;53261.44;5123754;28;20072;-75
2023/01/03 09:21:06;;;;;;;21.25;13.07;;;;;;;-140.72;100.00;53249.28;5120904;28;20047;-74
2023/01/03 09:23:33;;;;;;;18.70;13.80;;;;;;;-140.72;100.00;53218.81;5127669;28;20038;-77
2023/01/03 09:25:59;;;;;;;18.83;12.75;;;;;;;-140.72;100.00;53243.19;5124954;28;20016;-73
2023/01/03 09:28:25;;;;;;;24.45;13.30;;;;;;;-140.72;100.00;53249.28;5112341;28;20030;-73
2023/01/03 09:30:51;;;;;;;23.50;14.77;;;;;;;-140.72;100.00;53259.41;5126761;28;20019;-73
2023/01/03 09:33:16;;;;;;;23.45;14.35;;;;;;;-140.72;100.00;53239.13;5125466;28;20530;-74
2023/01/03 09:35:42;;;;;;;21.52;14.88;;;;;;;-140.72;100.00;53235.06;5128442;27;20026;-75
2023/01/03 09:38:07;;;;;;;21.70;14.57;;;;;;;-140.72;100.00;53245.22;5124530;27;20058;-73
2023/01/03 09:40:39;;;;;;;23.90;14.52;;;;;;;-140.72;100.00;53218.81;5130941;27;20098;-75
2023/01/03 09:43:13;;;;;;;23.38;13.93;;;;;;;-140.72;100.00;53259.41;5124152;27;20030;-76
2023/01/03 09:45:48;;;;;;;22.85;14.68;;;;;;;-140.72;100.00;53208.69;5133980;27;20023;-74
2023/01/03 09:48:16;;;;;;;19.02;14.32;;;;;;;-140.72;100.00;53228.97;5127137;27;20019;-76
2023/01/03 09:50:44;;;;;;;22.50;14.02;;;;;;;-140.72;100.00;53210.72;5126855;27;20031;-73
2023/01/03 10:03:42;;;;;;;18.73;14.20;;;;;;;-140.72;100.00;53269.56;5131121;27;20042;-72
2023/01/03 10:05:09;;;;;;;18.08;12.48;;;;;;;-140.72;100.00;53218.81;5049652;27;20064;-73
2023/01/03 10:07:56;;;;;;;22.60;11.75;;;;;;;-140.72;100.00;53180.25;5126960;27;20126;-75
2023/01/03 10:10:36;;;;;;;20.08;11.57;;;;;;;-140.72;100.00;53182.28;5130476;27;20047;-74
2023/01/03 10:13:23;;;;;;;17.40;11.45;;;;;;;-140.72;100.00;53206.66;5125152;27;20336;-73
2023/01/03 10:16:07;;;;;;;16.65;10.68;;;;;;;-140.72;100.00;53194.47;5131225;27;20110;-73
2023/01/03 10:18:38;;;;;;;17.23;10.65;;;;;;;-140.72;100.00;53210.72;5130211;27;20027;-75
2023/01/03 10:21:24;;;;;;;18.02;11.10;;;;;;;-140.72;100.00;53222.88;5128883;27;20074;-74
2023/01/03 10:23:52;;;;;;;24.48;11.55;;;;;;;-140.72;100.00;53204.63;5128865;27;20031;-76
2023/01/03 10:26:25;;;;;;;21.65;11.13;;;;;;;-140.72;100.00;53206.66;5133121;27;20019;-74
2023/01/03 10:28:51;;;;;;;17.35;10.82;;;;;;;-140.72;100.00;53168.09;5128749;27;20019;-73
2023/01/03 10:31:30;;;;;;;21.65;11.75;;;;;;;-140.72;100.00;53190.41;5123022;27;20475;-74
2023/01/03 10:33:59;;;;;;;13.20;9.40;;;;;;;-140.72;100.00;53214.78;5120720;27;20371;-74
2023/01/03 10:36:24;;;;;;;18.23;11.52;;;;;;;-140.72;100.00;53186.34;5120700;27;20104;-73
2023/01/03 10:39:05;;;;;;;14.57;10.65;;;;;;;-140.72;100.00;53226.94;5125681;27;20039;-73
2023/01/03 10:41:40;;;;;;;16.52;11.20;;;;;;;-140.72;100.00;53186.34;5131044;27;20051;-73
2023/01/03 10:44:05;;;;;;;15.45;10.00;;;;;;;-140.72;100.00;53180.25;5131856;27;20749;-74
2023/01/03 10:46:31;;;;;;;14.57;9.73;;;;;;;-140.72;100.00;53218.81;5129448;27;20031;-74
2023/01/03 10:49:16;;;;;;;13.82;9.10;;;;;;;-140.72;100.00;53194.47;5130278;27;20031;-73
2023/01/03 10:51:50;;;;;;;21.95;11.18;;;;;;;-140.72;100.00;53206.66;5127860;27;20027;-74
2023/01/03 10:54:18;;;;;;;17.98;8.77;;;;;;;-140.72;100.00;53204.63;5126976;27;20054;-73
2023/01/03 10:56:45;;;;;;;11.98;9.63;;;;;;;-140.72;100.00;53235.06;5128506;27;20059;-74
2023/01/03 10:59:24;;;;;;;18.65;10.05;;;;;;;-140.72;100.00;53174.19;5126015;27;20034;-75
2023/01/03 11:01:55;;;;;;;15.10;9.85;;;;;;;-140.72;100.00;53170.13;5127317;27;20018;-73
2023/01/03 11:04:22;;;;;;;22.45;9.43;;;;;;;-140.72;100.00;53182.28;5123462;27;20441;-74
2023/01/03 11:06:59;;;;;;;13.93;8.90;;;;;;;-140.72;100.00;53178.22;5124021;27;20027;-74
2023/01/03 11:09:30;;;;;;;12.63;8.10;;;;;;;-140.72;100.00;53184.31;5119404;27;20421;-73
2023/01/03 11:12:03;;;;;;;20.55;8.43;;;;;;;-140.72;100.00;53196.50;5116617;27;20023;-73
2023/01/03 11:14:28;;;;;;;14.52;8.98;;;;;;;-140.72;100.00;53200.56;5125967;27;20394;-73
2023/01/03 11:16:58;;;;;;;15.50;8.93;;;;;;;-140.72;100.00;53170.13;5125264;27;20019;-74
2023/01/03 11:19:44;;;;;;;;;;;;;;;-140.72;100.00;53178.22;5126857;27;20080;-74
2023/01/03 11:22:18;;;;;;;11.65;7.90;;;;;;;-140.72;100.00;53184.31;5124242;27;19930;-75
2023/01/03 11:25:04;;;;;;;15.23;7.40;;;;;;;-140.72;100.00;53174.19;5121396;27;20027;-74
2023/01/03 11:27:59;;;;;;;11.85;6.35;;;;;;;-140.72;100.00;53170.13;5128087;27;20679;-74
2023/01/03 11:30:51;;;;;;;14.05;6.72;;;;;;;-140.72;100.00;53196.50;5119408;27;20355;-74
2023/01/03 11:33:47;;;;;;;11.02;7.75;;;;;;;-140.72;100.00;53157.94;5124987;27;20030;-73
2023/01/03 11:36:45;;;;;;;12.27;6.80;;;;;;;-140.72;100.00;53174.19;5126097;27;20075;-72
2023/01/03 11:39:37;;;;;;;10.45;6.45;;;;;;;-140.72;100.00;53166.06;5117464;27;20031;-72
2023/01/03 11:42:24;;;;;;;16.98;6.93;;;;;;;-140.72;100.00;53204.63;5117216;27;20042;-73
2023/01/03 11:45:06;;;;;;;7.72;5.28;;;;;;;-140.72;100.00;53170.13;5120239;27;20084;-76
2023/01/03 11:47:49;;;;;;;9.73;5.90;;;;;;;-140.72;100.00;53214.78;5116786;27;20024;-73
2023/01/03 11:50:24;;;;;;;7.47;5.50;;;;;;;-140.72;100.00;53133.59;5115503;27;20032;-72
2023/01/03 11:52:58;;;;;;;9.00;5.15;;;;;;;-140.72;100.00;53155.91;5115523;27;20043;-73
2023/01/03 11:55:44;;;;;;;8.13;5.20;;;;;;;-140.72;100.00;53178.22;5125406;27;20035;-74
2023/01/03 11:58:34;;;;;;;8.50;5.65;;;;;;;-140.72;100.00;53180.25;5123927;27;20022;-76
2023/01/03 12:01:31;;;;;;;8.77;5.57;;;;;;;-140.72;100.00;53153.88;5124868;27;20463;-72
2023/01/03 12:04:19;;;;;;;9.40;4.63;;;;;;;-140.72;100.00;53198.53;5117243;27;20015;-73
2023/01/03 12:07:03;;;;;;;10.07;4.63;;;;;;;-140.72;100.00;53218.81;5120424;27;20026;-72
2023/01/03 12:09:53;;;;;;;6.30;4.93;;;;;;;-140.72;100.00;53166.06;5124720;27;20058;-72